Flight Track Log - Related Links

Times and Time Zones

All times are in EST time to prevent confusion due to time zone crossing. See the AIP5009 flight status page for this flight to view local times or setup timezone preferences in your user account.

Time Position Orientation Groundspeed Altitude Reporting Facility
EST Latitude Longitude Course Direction KTS MPH feet Rate Location/Type
Sat 04:53:48 AM 46.9247 -114.1111 108° East 223 257 4,700  Level Salt Lake Center
Sat 04:54:48 AM 46.9008 -114.1256 202° Southwest 150 173 7,500 2,700 Climbing Salt Lake Center
Sat 04:55:48 AM 46.9053 -114.0631 84° East 158 182 10,100 2,450 Climbing Salt Lake Center
Sat 04:56:48 AM 46.8922 -113.9931 105° East 178 205 12,400 2,250 Climbing Salt Lake Center
Sat 04:57:48 AM 46.8772 -113.9136 105° East 197 227 14,600 2,182 Climbing Salt Lake Center
Sat 04:58:00 AM 46.8293 -113.5917 107° East  Level Estimated
Sat 04:58:49 AM 46.8636 -113.8253 103° East 219 252 16,800  Level Salt Lake Center
Sat 04:59:00 AM 46.8078 -113.4937 108° East  Level FlightAware Approximate
Sat 04:59:49 AM 46.8469 -113.7319 105° East 235 270 19,200  Level Salt Lake Center
Sat 05:00:49 AM 46.8231 -113.6364 110° East 252 290 20,900 1,700 Climbing Salt Lake Center
Sat 05:01:49 AM 46.8061 -113.5286 103° East 271 312 22,600 1,650 Climbing Salt Lake Center
Sat 05:02:49 AM 46.7883 -113.4167 103° East 282 325 24,200 1,190 Climbing Salt Lake Center
Sat 05:03:50 AM 46.7683 -113.3017 104° East 295 339 25,000 446 Climbing Salt Lake Center
Sat 05:04:50 AM 46.7411 -113.1703 107° East 334 384 25,100  Climbing Salt Lake Center
Sat 05:05:50 AM 46.7156 -113.0322 105° East 352 405 25,000 -50 Descending Salt Lake Center
Sat 05:06:50 AM 46.6928 -112.8922 103° East 356 410 25,000  Level Salt Lake Center
Sat 05:07:50 AM 46.6686 -112.7536 104° East 356 410 25,000  Level Salt Lake Center
Sat 05:08:50 AM 46.6403 -112.6167 107° East 355 409 25,000  Level Salt Lake Center
Sat 05:09:50 AM 46.6156 -112.4772 104° East 356 410 25,000  Level Salt Lake Center
Sat 05:10:50 AM 46.5894 -112.3392 105° East 356 410 25,000  Level Salt Lake Center
Sat 05:11:50 AM 46.5628 -112.2017 106° East 356 410 25,000  Level Salt Lake Center
Sat 05:12:50 AM 46.5342 -112.0628 107° East 359 413 25,000  Level Salt Lake Center
Sat 05:13:50 AM 46.5092 -111.9211 104° East 363 418 25,000  Level Salt Lake Center
Sat 05:14:50 AM 46.4817 -111.7836 106° East 361 415 25,000  Level Salt Lake Center
Sat 05:15:50 AM 46.4528 -111.6450 107° East 361 415 25,000  Level Salt Lake Center
Sat 05:16:51 AM 46.4225 -111.4961 106° East 360 414 25,000  Level Salt Lake Center
Sat 05:17:51 AM 46.3975 -111.3517 104° East 363 418 25,000  Level Salt Lake Center
Sat 05:18:51 AM 46.3697 -111.2200 107° East 364 419 25,000 50 Level Salt Lake Center
Sat 05:19:51 AM 46.3375 -111.0800 108° East 360 414 25,100  Climbing Salt Lake Center
Sat 05:20:51 AM 46.3164 -110.9533 104° East 363 418 25,000 -50 Descending Salt Lake Center
Sat 05:21:51 AM 46.2869 -110.8158 107° East 360 414 25,000  Level Salt Lake Center
Sat 05:22:51 AM 46.2553 -110.6792 108° East 360 414 25,000  Level Salt Lake Center
Sat 05:23:51 AM 46.2281 -110.5403 106° East 361 415 25,000  Level Salt Lake Center
Sat 05:24:51 AM 46.1978 -110.4042 108° East 358 412 25,000  Level Salt Lake Center
Sat 05:25:51 AM 46.1703 -110.2644 106° East 361 415 25,000 -450 Level Salt Lake Center
Sat 05:26:51 AM 46.1392 -110.1272 108° East 361 415 24,100 -1,150 Descending Salt Lake Center
Sat 05:27:51 AM 46.1128 -109.9947 106° East 350 403 22,700 -1,300 Descending Salt Lake Center
Sat 05:28:51 AM 46.0872 -109.8656 106° East 338 389 21,500 -1,400 Descending Salt Lake Center
Sat 05:29:51 AM 46.0544 -109.7300 109° East 331 381 19,900 -1,785 Descending Salt Lake Center
Sat 05:30:52 AM 46.0269 -109.5911 106° East 335 386 17,900 -1,785 Descending Salt Lake Center
Sat 05:31:52 AM 45.9992 -109.4739 109° East 317 365 16,300 -1,350 Descending Salt Lake Center
Sat 05:32:52 AM 45.9833 -109.3547 101° East 309 356 15,200 -1,250 Descending Salt Lake Center
Sat 05:33:52 AM 45.9781 -109.2356 94° East 303 349 13,800 -1,200 Descending Salt Lake Center
Sat 05:34:52 AM 45.9722 -109.1219 94° East 292 336 12,800 -1,150 Descending Salt Lake Center
Sat 05:35:52 AM 45.9433 -109.0233 113° Southeast 273 314 11,500 -1,700 Descending Salt Lake Center
Sat 05:36:52 AM 45.9147 -108.9222 112° Southeast 276 318 9,400 -2,000 Descending Salt Lake Center
Sat 05:37:52 AM 45.8894 -108.8308 112° Southeast 255 293 7,500 -1,300 Descending Salt Lake Center
Sat 05:38:52 AM 45.8639 -108.7403 112° Southeast 234 269 6,800 -900 Descending Salt Lake Center
Sat 05:39:52 AM 45.8425 -108.6633 112° Southeast 217 250 5,700 -1,150 Descending Salt Lake Center
Sat 05:40:52 AM 45.8256 -108.6006 111° Southeast 178 205 4,500 -1,050 Descending Salt Lake Center
Sat 05:41:52 AM 45.8122 -108.5544 113° Southeast 133 153 3,600 -900 Descending Salt Lake Center
Sat 05:43:00 AM 45.8077 -108.5429 110° East  Level Estimated
Sat 05:50:00 AM 45.8077 -108.5429 110° East  Level Estimated

Login

Don't have an account? Register now (free) for customized features, flight alerts, and more!